Time;durP1;ratioP1;P1;durP2;ratioP2;P2;SDS_P1;SDS_P2;PMS_P1;PMS_P2;Temp;Humidity;BMP_temperature;BMP_pressure;BME280_temperature;BME280_humidity;BME280_pressure;Samples;Min_cycle;Max_cycle;Signal;HPM_P1;HPM_P2
2022/10/26 00:02:13;;;;;;;6.47;4.15;;;9.20;99.90;;;;;;4974298;28;20058;-37
2022/10/26 00:04:38;;;;;;;6.18;3.47;;;9.20;99.90;;;;;;4970229;28;20041;-37
2022/10/26 00:07:04;;;;;;;7.38;4.28;;;9.30;99.90;;;;;;4971423;28;20054;-38
2022/10/26 00:09:29;;;;;;;4.43;3.80;;;9.30;99.90;;;;;;4973818;28;20038;-36
2022/10/26 00:11:55;;;;;;;4.72;3.40;;;9.30;99.90;;;;;;4974226;28;20415;-37
2022/10/26 00:14:21;;;;;;;9.43;3.90;;;9.40;99.90;;;;;;4972407;28;20046;-37
2022/10/26 00:16:46;;;;;;;6.72;4.05;;;9.40;99.90;;;;;;4973728;28;20677;-37
2022/10/26 00:19:12;;;;;;;5.50;3.67;;;9.40;99.90;;;;;;4970025;28;20097;-36
2022/10/26 00:21:37;;;;;;;6.07;3.88;;;9.50;99.90;;;;;;4973489;28;20379;-35
2022/10/26 00:24:03;;;;;;;5.35;3.47;;;9.40;99.90;;;;;;4967805;28;20077;-36
2022/10/26 00:26:29;;;;;;;3.80;3.47;;;9.30;99.90;;;;;;4970179;28;20118;-38
2022/10/26 00:28:56;;;;;;;5.43;3.95;;;9.40;99.90;;;;;;4972365;28;20105;-38
2022/10/26 00:31:22;;;;;;;5.93;3.60;;;9.40;99.90;;;;;;4969773;28;20027;-39
2022/10/26 00:33:54;;;;;;;5.55;3.63;;;9.50;99.90;;;;;;4970813;28;20527;-39
2022/10/26 00:36:21;;;;;;;4.60;3.20;;;9.50;99.90;;;;;;4968683;28;20033;-37
2022/10/26 00:38:54;;;;;;;5.22;3.90;;;9.60;99.90;;;;;;4972065;28;20039;-36
2022/10/26 00:41:23;;;;;;;6.30;4.40;;;9.60;99.90;;;;;;4968886;28;20023;-37
2022/10/26 00:43:50;;;;;;;8.90;4.22;;;9.70;99.90;;;;;;4969978;28;20041;-35
2022/10/26 00:46:32;;;;;;;7.93;3.55;;;9.70;99.90;;;;;;4968820;28;20026;-37
2022/10/26 00:49:11;;;;;;;4.75;3.17;;;9.80;99.90;;;;;;4971419;28;20023;-30
2022/10/26 00:51:39;;;;;;;;;;;9.80;99.90;;;;;;4973203;28;20504;-37
2022/10/26 00:54:09;;;;;;;5.00;3.45;;;9.80;99.90;;;;;;4969218;28;20057;-37
2022/10/26 00:56:35;;;;;;;5.07;3.40;;;9.80;99.90;;;;;;4969505;28;20046;-39
2022/10/26 00:59:04;;;;;;;7.43;3.70;;;9.90;99.90;;;;;;4971596;28;20097;-38
2022/10/26 01:01:32;;;;;;;4.75;3.60;;;9.90;99.90;;;;;;4968069;28;20058;-38
2022/10/26 01:03:58;;;;;;;4.07;3.45;;;9.90;99.90;;;;;;4968882;28;20134;-36
2022/10/26 01:06:24;;;;;;;8.32;4.20;;;9.90;99.90;;;;;;4973975;28;20110;-36
2022/10/26 01:08:50;;;;;;;5.00;3.25;;;9.90;99.90;;;;;;4976203;28;20464;-39
2022/10/26 01:11:16;;;;;;;3.17;2.88;;;9.90;99.90;;;;;;4974119;28;20022;-38
2022/10/26 01:13:44;;;;;;;5.90;3.08;;;9.90;99.90;;;;;;4975390;28;20498;-30
2022/10/26 01:16:10;;;;;;;;;;;10.00;99.90;;;;;;4973825;28;20376;-36
2022/10/26 01:18:38;;;;;;;4.70;3.80;;;9.80;99.90;;;;;;4969144;28;19917;-38
2022/10/26 01:21:37;;;;;;;5.40;3.45;;;9.80;99.90;;;;;;4972696;28;20498;-38
2022/10/26 01:24:09;;;;;;;3.13;2.83;;;9.80;99.90;;;;;;4972530;28;20501;-34
2022/10/26 01:26:56;;;;;;;6.13;3.45;;;9.80;99.90;;;;;;4975989;28;20039;-39
2022/10/26 01:29:31;;;;;;;6.27;3.80;;;9.80;99.90;;;;;;4969316;28;20561;-37
2022/10/26 01:32:07;;;;;;;7.68;3.80;;;9.80;99.90;;;;;;4970100;28;20522;-38
2022/10/26 01:34:45;;;;;;;4.00;3.20;;;9.80;99.90;;;;;;4969866;28;20548;-38
2022/10/26 01:37:25;;;;;;;5.10;3.50;;;9.90;99.90;;;;;;4967837;28;20041;-34
2022/10/26 01:40:05;;;;;;;3.40;3.10;;;9.90;99.90;;;;;;4970104;28;20035;-39
2022/10/26 01:42:32;;;;;;;3.80;3.20;;;10.00;99.90;;;;;;4967922;28;20030;-38
2022/10/26 01:45:05;;;;;;;5.53;3.38;;;10.00;99.90;;;;;;4968951;28;20038;-37
2022/10/26 01:47:33;;;;;;;3.83;3.10;;;10.10;99.90;;;;;;4970562;28;20376;-39
2022/10/26 01:50:00;;;;;;;6.80;3.95;;;10.10;99.90;;;;;;4971809;28;20506;-38
2022/10/26 01:52:27;;;;;;;6.13;3.25;;;10.00;99.90;;;;;;4969530;28;20038;-36
2022/10/26 01:55:03;;;;;;;3.78;3.13;;;10.00;99.90;;;;;;4974090;28;20035;-38
2022/10/26 01:57:35;;;;;;;4.80;3.47;;;10.00;99.90;;;;;;4972890;28;20078;-35
2022/10/26 02:00:09;;;;;;;4.97;3.30;;;10.10;99.90;;;;;;4969523;28;20788;-38
2022/10/26 02:03:13;;;;;;;4.03;3.17;;;10.10;99.90;;;;;;4969011;28;20026;-38
2022/10/26 02:05:59;;;;;;;3.80;3.10;;;10.10;99.90;;;;;;4957864;28;20402;-38
2022/10/26 02:08:51;;;;;;;3.33;2.80;;;10.10;99.90;;;;;;4968427;28;20026;-36
2022/10/26 02:11:48;;;;;;;5.47;3.10;;;10.10;99.90;;;;;;4967131;28;20408;-35
2022/10/26 02:14:35;;;;;;;5.55;3.28;;;10.20;99.90;;;;;;4966051;28;20117;-32
2022/10/26 02:17:27;;;;;;;3.40;2.53;;;10.20;99.90;;;;;;4973167;28;20030;-39
2022/10/26 02:20:07;;;;;;;8.00;2.65;;;10.30;99.90;;;;;;4964497;28;20035;-30
2022/10/26 02:22:54;;;;;;;4.22;2.88;;;10.30;99.90;;;;;;4968679;28;20492;-39
2022/10/26 02:25:24;;;;;;;6.60;3.40;;;10.30;99.90;;;;;;4926002;29;20047;-38
2022/10/26 02:27:55;;;;;;;6.70;3.10;;;10.30;99.90;;;;;;4930222;29;20099;-38
2022/10/26 02:30:21;;;;;;;3.78;3.20;;;10.30;99.90;;;;;;4926203;29;20047;-38
2022/10/26 02:32:51;;;;;;;3.97;2.90;;;10.20;99.90;;;;;;4928905;28;20552;-37
2022/10/26 02:35:20;;;;;;;3.63;2.70;;;10.20;99.90;;;;;;4931677;29;20047;-38
2022/10/26 02:37:47;;;;;;;3.80;2.67;;;10.20;99.90;;;;;;4946859;28;20020;-38
2022/10/26 02:40:18;;;;;;;3.28;2.88;;;10.30;99.90;;;;;;4934042;29;20067;-38
2022/10/26 02:42:45;;;;;;;3.90;3.00;;;10.30;99.90;;;;;;4911408;29;20103;-39
2022/10/26 02:45:16;;;;;;;3.80;3.40;;;10.30;99.90;;;;;;4943552;28;20150;-36
2022/10/26 02:47:42;;;;;;;3.28;2.92;;;10.30;99.90;;;;;;4946970;28;20031;-39
2022/10/26 02:50:08;;;;;;;6.10;2.83;;;10.30;99.90;;;;;;4945553;28;20039;-35
2022/10/26 02:53:13;;;;;;;5.07;3.22;;;10.30;99.90;;;;;;4931960;29;20028;-36
2022/10/26 02:55:46;;;;;;;4.40;3.00;;;10.30;99.90;;;;;;4943873;28;20062;-37
2022/10/26 02:58:18;;;;;;;4.70;2.70;;;10.30;99.90;;;;;;4968027;28;20502;-38
2022/10/26 03:00:45;;;;;;;3.15;2.85;;;10.30;99.90;;;;;;4969554;28;20056;-39
2022/10/26 03:03:11;;;;;;;2.92;2.63;;;10.30;99.90;;;;;;4970381;28;20028;-37
2022/10/26 03:05:41;;;;;;;3.15;2.70;;;10.30;99.90;;;;;;4952715;28;20043;-37
2022/10/26 03:08:07;;;;;;;4.85;3.03;;;10.30;99.90;;;;;;4954756;28;20130;-41
2022/10/26 03:10:35;;;;;;;8.80;3.00;;;10.40;99.90;;;;;;4986547;28;20792;-38
2022/10/26 03:13:01;;;;;;;;;;;10.40;99.90;;;;;;4969610;28;20030;-37
2022/10/26 03:15:26;;;;;;;3.17;2.80;;;10.40;99.90;;;;;;4968469;28;19914;-38
2022/10/26 03:17:52;;;;;;;4.78;2.90;;;10.40;99.90;;;;;;4967103;28;20035;-37
2022/10/26 03:20:18;;;;;;;3.67;2.70;;;10.40;99.90;;;;;;4973625;28;20511;-34
2022/10/26 03:22:47;;;;;;;6.22;3.50;;;10.40;99.90;;;;;;4973512;28;20018;-38
2022/10/26 03:25:14;;;;;;;6.63;3.40;;;10.50;99.90;;;;;;4960496;28;20045;-38
2022/10/26 03:27:40;;;;;;;3.38;2.88;;;10.40;99.90;;;;;;4971950;28;20373;-30
2022/10/26 03:30:07;;;;;;;3.42;3.13;;;10.40;99.90;;;;;;4971846;28;20355;-38
2022/10/26 03:32:33;;;;;;;3.45;2.92;;;10.40;99.90;;;;;;4960406;28;20042;-38
2022/10/26 03:34:58;;;;;;;4.60;2.97;;;10.50;99.90;;;;;;4956242;28;20712;-37
2022/10/26 03:37:24;;;;;;;5.70;3.80;;;10.50;99.90;;;;;;4976692;28;20103;-34
2022/10/26 03:39:50;;;;;;;7.88;3.80;;;10.50;99.90;;;;;;4976752;28;20050;-37
2022/10/26 03:42:15;;;;;;;3.92;3.17;;;10.50;99.90;;;;;;4970573;28;20038;-38
2022/10/26 03:44:41;;;;;;;3.70;3.40;;;10.50;99.90;;;;;;4973748;28;20487;-38
2022/10/26 03:47:07;;;;;;;5.60;3.63;;;10.50;99.90;;;;;;4972206;28;20035;-38
2022/10/26 03:49:32;;;;;;;4.80;3.50;;;10.50;99.90;;;;;;4972679;28;20034;-37
2022/10/26 03:52:01;;;;;;;5.68;3.40;;;10.40;99.90;;;;;;4973119;28;20496;-32
2022/10/26 03:54:27;;;;;;;5.25;3.17;;;10.50;99.90;;;;;;4975885;28;20426;-38
2022/10/26 03:56:52;;;;;;;5.68;3.47;;;10.40;99.90;;;;;;4974059;28;20038;-36
2022/10/26 03:59:18;;;;;;;7.07;3.47;;;10.40;99.90;;;;;;4978284;28;20499;-37
2022/10/26 04:01:44;;;;;;;6.15;3.33;;;10.40;99.90;;;;;;4970423;28;20114;-38
2022/10/26 04:04:09;;;;;;;4.90;3.15;;;10.40;99.90;;;;;;4975874;28;20046;-38
2022/10/26 04:06:35;;;;;;;3.70;3.17;;;10.50;99.90;;;;;;4972326;28;20035;-38
2022/10/26 04:09:01;;;;;;;4.75;3.20;;;10.40;99.90;;;;;;4972098;28;20035;-38
2022/10/26 04:11:30;;;;;;;4.22;3.47;;;10.50;99.90;;;;;;4968585;28;20062;-38
2022/10/26 04:13:58;;;;;;;6.18;3.00;;;10.50;99.90;;;;;;4976457;28;20038;-38
2022/10/26 04:16:24;;;;;;;;;;;10.50;99.90;;;;;;4988750;28;20018;-34
2022/10/26 04:18:50;;;;;;;3.53;2.97;;;10.50;99.90;;;;;;4974582;28;19965;-33
2022/10/26 04:21:15;;;;;;;7.82;3.13;;;10.50;99.90;;;;;;4958707;28;20432;-39
2022/10/26 04:23:41;;;;;;;6.13;3.40;;;10.50;99.90;;;;;;4959215;28;20030;-37
2022/10/26 04:26:07;;;;;;;3.85;3.35;;;10.50;99.90;;;;;;4960009;28;20018;-34
2022/10/26 04:28:33;;;;;;;6.72;3.17;;;10.50;99.90;;;;;;4977911;28;20127;-33
2022/10/26 04:30:59;;;;;;;4.05;2.28;;;10.40;99.90;;;;;;4968414;28;20137;-37
2022/10/26 04:33:24;;;;;;;7.45;3.30;;;10.30;99.90;;;;;;4972348;28;20113;-36
2022/10/26 04:35:50;;;;;;;7.13;3.65;;;10.30;99.90;;;;;;4970744;28;20093;-38
2022/10/26 04:38:16;;;;;;;4.47;2.70;;;10.30;99.90;;;;;;4970802;28;20093;-38
2022/10/26 04:40:41;;;;;;;3.35;2.95;;;10.40;99.90;;;;;;4971636;28;20026;-40
2022/10/26 04:43:07;;;;;;;4.68;3.10;;;10.40;99.90;;;;;;4956095;28;20038;-38
2022/10/26 04:45:33;;;;;;;4.70;3.30;;;10.40;99.90;;;;;;4974608;28;20037;-36
2022/10/26 04:48:07;;;;;;;7.32;3.35;;;10.40;99.90;;;;;;4972874;28;20038;-36
2022/10/26 04:50:34;;;;;;;6.85;3.25;;;10.50;99.90;;;;;;4973143;28;20097;-38
2022/10/26 04:52:59;;;;;;;5.43;3.90;;;10.50;99.90;;;;;;4957841;28;20041;-37
2022/10/26 04:55:25;;;;;;;4.40;3.63;;;10.60;99.90;;;;;;4972439;28;20039;-36
2022/10/26 04:57:51;;;;;;;3.08;2.78;;;10.60;99.90;;;;;;4972126;28;20111;-37
2022/10/26 05:00:16;;;;;;;4.20;3.55;;;10.60;99.90;;;;;;4968589;28;20041;-32
2022/10/26 05:02:42;;;;;;;5.18;3.10;;;10.60;99.90;;;;;;4962475;28;20043;-35
2022/10/26 05:05:08;;;;;;;5.50;4.03;;;10.60;99.90;;;;;;4971749;28;20038;-37
2022/10/26 05:07:34;;;;;;;7.22;3.35;;;10.60;99.90;;;;;;4967165;28;20085;-36
2022/10/26 05:10:00;;;;;;;4.47;3.03;;;10.60;99.90;;;;;;4972858;28;20031;-29
2022/10/26 05:12:25;;;;;;;4.43;3.17;;;10.60;99.90;;;;;;4972285;28;20027;-35
2022/10/26 05:14:51;;;;;;;4.43;3.13;;;10.70;99.90;;;;;;4987887;28;20033;-38
2022/10/26 05:17:17;;;;;;;6.82;3.53;;;10.70;99.90;;;;;;4966416;28;20117;-35
2022/10/26 05:19:51;;;;;;;3.55;3.22;;;10.70;99.90;;;;;;4951816;28;20085;-35
2022/10/26 05:22:17;;;;;;;4.25;3.75;;;10.70;99.90;;;;;;4966436;28;20042;-36
2022/10/26 05:24:43;;;;;;;7.88;5.05;;;10.60;99.90;;;;;;4952613;28;20038;-32
2022/10/26 05:27:09;;;;;;;9.73;7.63;;;10.70;99.90;;;;;;4959541;28;20027;-37
2022/10/26 05:29:35;;;;;;;9.85;5.70;;;10.70;99.90;;;;;;4960493;28;20092;-38
2022/10/26 05:32:00;;;;;;;16.83;7.68;;;10.80;99.90;;;;;;4955705;28;20426;-37
2022/10/26 05:34:26;;;;;;;8.98;4.88;;;10.80;99.90;;;;;;4968144;28;20035;-36
2022/10/26 05:36:53;;;;;;;4.82;2.95;;;10.70;99.90;;;;;;4966470;28;20023;-38
2022/10/26 05:39:19;;;;;;;6.18;3.10;;;10.70;99.90;;;;;;4956935;28;20491;-38
2022/10/26 05:41:45;;;;;;;7.43;3.80;;;10.70;99.90;;;;;;4968262;28;20042;-38
2022/10/26 05:44:10;;;;;;;5.15;3.65;;;10.80;99.90;;;;;;4971341;28;20038;-36
2022/10/26 05:46:36;;;;;;;6.28;4.30;;;10.80;99.90;;;;;;4970410;28;20181;-37
2022/10/26 05:49:02;;;;;;;6.40;3.85;;;10.80;99.90;;;;;;4956691;28;20047;-38
2022/10/26 05:51:27;;;;;;;7.00;3.45;;;10.80;99.90;;;;;;4965203;28;20042;-38
2022/10/26 05:53:53;;;;;;;4.55;3.33;;;10.80;99.90;;;;;;4973773;28;20084;-38
2022/10/26 05:56:31;;;;;;;8.45;4.43;;;10.80;99.90;;;;;;4973372;28;20050;-35
2022/10/26 05:58:57;;;;;;;;;;;10.80;99.90;;;;;;4986634;28;20072;-25
2022/10/26 06:01:55;;;;;;;5.20;3.67;;;10.80;99.90;;;;;;4958583;28;20368;-38
2022/10/26 06:04:42;;;;;;;8.60;4.07;;;10.80;99.90;;;;;;4969220;28;20109;-38
2022/10/26 06:07:13;;;;;;;5.57;3.67;;;10.80;99.90;;;;;;4967312;28;20073;-38
2022/10/26 06:09:40;;;;;;;4.22;3.42;;;10.80;99.90;;;;;;4961220;28;20088;-38
2022/10/26 06:12:07;;;;;;;4.75;3.45;;;10.80;99.90;;;;;;4967467;28;20098;-38
2022/10/26 06:14:34;;;;;;;5.07;3.53;;;10.80;99.90;;;;;;4969040;28;20034;-38
2022/10/26 06:17:10;;;;;;;3.42;3.13;;;10.80;99.90;;;;;;4969142;28;20480;-37
2022/10/26 06:19:58;;;;;;;4.82;3.42;;;10.80;99.90;;;;;;4965206;28;20019;-37
2022/10/26 06:22:51;;;;;;;4.55;3.25;;;10.90;99.90;;;;;;4967208;28;20494;-35
2022/10/26 06:25:45;;;;;;;8.02;3.53;;;10.80;99.90;;;;;;4967934;28;20030;-37
2022/10/26 06:28:40;;;;;;;4.70;3.00;;;10.90;99.90;;;;;;4971079;28;20047;-31
2022/10/26 06:31:06;;;;;;;4.50;3.17;;;10.90;99.90;;;;;;4924625;28;20039;-38
2022/10/26 06:33:32;;;;;;;6.10;3.50;;;11.00;99.90;;;;;;4969705;28;20027;-30
2022/10/26 06:36:26;;;;;;;6.20;3.28;;;11.00;99.90;;;;;;4971703;28;22195;-38
2022/10/26 06:38:58;;;;;;;4.57;3.38;;;11.00;99.90;;;;;;4965314;28;20094;-38
2022/10/26 06:41:25;;;;;;;3.80;3.22;;;11.00;99.90;;;;;;4970796;28;20050;-37
2022/10/26 06:43:52;;;;;;;2.97;2.67;;;11.00;99.90;;;;;;4966625;28;20633;-36
2022/10/26 06:46:51;;;;;;;6.60;3.38;;;11.00;99.90;;;;;;4969842;28;20257;-39
2022/10/26 06:49:40;;;;;;;9.13;3.60;;;11.00;99.90;;;;;;4970113;28;20110;-38
2022/10/26 06:52:38;;;;;;;3.42;3.10;;;11.00;99.90;;;;;;4970182;28;20062;-38
2022/10/26 06:55:04;;;;;;;;;;;11.10;99.90;;;;;;4953680;28;20054;-38
2022/10/26 06:57:35;;;;;;;2.92;2.53;;;11.10;99.90;;;;;;4968894;28;19925;-38
2022/10/26 07:00:07;;;;;;;7.55;3.03;;;11.10;99.90;;;;;;4970915;28;20126;-38
2022/10/26 07:02:33;;;;;;;6.63;3.33;;;11.20;99.90;;;;;;4970967;28;20046;-38
2022/10/26 07:04:59;;;;;;;4.32;2.75;;;11.20;99.90;;;;;;4976260;28;20027;-38
2022/10/26 07:07:27;;;;;;;4.05;2.97;;;11.20;99.90;;;;;;5002768;28;20488;-33
2022/10/26 07:09:53;;;;;;;6.35;4.13;;;11.30;99.90;;;;;;4990632;28;20039;-39
2022/10/26 07:12:19;;;;;;;6.25;3.45;;;11.30;99.90;;;;;;4975185;28;20054;-40
2022/10/26 07:14:45;;;;;;;8.02;3.35;;;11.30;99.90;;;;;;4974467;28;20495;-34
2022/10/26 07:17:11;;;;;;;4.30;3.50;;;11.30;99.90;;;;;;4989007;28;20567;-37
2022/10/26 07:19:36;;;;;;;7.28;3.55;;;11.40;99.90;;;;;;4954551;28;20042;-35
2022/10/26 07:22:02;;;;;;;4.88;3.50;;;11.40;99.90;;;;;;4969343;28;20035;-38
2022/10/26 07:24:29;;;;;;;5.47;3.63;;;11.40;99.90;;;;;;4972103;28;20039;-37
2022/10/26 07:26:56;;;;;;;6.78;3.63;;;11.40;99.90;;;;;;4973117;28;20034;-33
2022/10/26 07:29:23;;;;;;;5.82;3.10;;;11.40;99.90;;;;;;4975278;28;20480;-38
2022/10/26 07:31:49;;;;;;;3.50;3.15;;;11.40;99.90;;;;;;4958178;28;20045;-38
2022/10/26 07:34:15;;;;;;;5.32;3.38;;;11.40;99.90;;;;;;4972451;28;20492;-37
2022/10/26 07:36:41;;;;;;;4.68;3.00;;;11.50;99.90;;;;;;4971160;28;20027;-38
2022/10/26 07:39:07;;;;;;;4.55;2.63;;;11.50;99.90;;;;;;4973546;28;20026;-35
2022/10/26 07:41:33;;;;;;;3.53;2.67;;;11.50;99.90;;;;;;4971384;28;20023;-38
2022/10/26 07:43:58;;;;;;;4.45;2.83;;;11.60;99.90;;;;;;4971617;28;20483;-38
2022/10/26 07:46:25;;;;;;;4.22;2.90;;;11.60;99.90;;;;;;4971072;28;20022;-38
2022/10/26 07:48:51;;;;;;;3.20;2.45;;;11.70;99.90;;;;;;4975180;28;20034;-37
2022/10/26 07:51:18;;;;;;;6.63;2.60;;;11.80;99.90;;;;;;4957895;28;20082;-33
2022/10/26 07:53:44;;;;;;;4.95;2.70;;;11.80;99.90;;;;;;4972107;28;20034;-39
2022/10/26 07:56:10;;;;;;;4.75;2.58;;;11.90;99.90;;;;;;4957801;28;20412;-38
2022/10/26 07:58:36;;;;;;;3.38;2.50;;;12.00;99.90;;;;;;4969749;28;20401;-32
2022/10/26 08:01:13;;;;;;;3.33;2.30;;;12.00;99.90;;;;;;4971975;28;20041;-33
2022/10/26 08:03:39;;;;;;;5.40;2.63;;;12.10;99.90;;;;;;4971754;28;20022;-34
2022/10/26 08:06:06;;;;;;;2.47;2.28;;;12.20;99.90;;;;;;4970394;28;20435;-32
2022/10/26 08:08:32;;;;;;;3.42;2.65;;;12.30;99.90;;;;;;4971684;28;20093;-41
2022/10/26 08:10:58;;;;;;;3.03;2.72;;;12.40;99.90;;;;;;4970809;28;20027;-34
2022/10/26 08:13:24;;;;;;;4.35;2.25;;;12.50;99.90;;;;;;4972485;28;20030;-38
2022/10/26 08:16:00;;;;;;;2.30;2.10;;;12.50;99.90;;;;;;4971780;28;20038;-34
2022/10/26 08:18:26;;;;;;;5.15;2.67;;;12.60;99.90;;;;;;4970966;28;20174;-36
2022/10/26 08:20:52;;;;;;;6.32;2.97;;;12.60;99.90;;;;;;4986712;28;20042;-38
2022/10/26 08:23:18;;;;;;;5.82;2.55;;;12.70;99.90;;;;;;4972944;28;20034;-38
2022/10/26 08:25:43;;;;;;;5.88;2.58;;;12.70;99.90;;;;;;4972240;28;20030;-38
2022/10/26 08:28:09;;;;;;;5.30;4.63;;;12.80;99.90;;;;;;4970122;28;20039;-38
2022/10/26 08:30:35;;;;;;;5.38;3.00;;;12.80;99.90;;;;;;4969916;28;20384;-34
2022/10/26 08:33:02;;;;;;;5.85;2.90;;;12.90;99.90;;;;;;4971021;28;20041;-36
2022/10/26 08:35:28;;;;;;;4.50;2.60;;;13.10;99.90;;;;;;4971087;28;20067;-35
2022/10/26 08:37:54;;;;;;;3.83;2.10;;;13.10;99.90;;;;;;4967961;28;20498;-31
2022/10/26 08:40:29;;;;;;;2.35;2.00;;;13.20;99.90;;;;;;4971327;28;20050;-38
2022/10/26 08:43:16;;;;;;;4.47;2.22;;;13.20;99.90;;;;;;4984984;28;20118;-37
2022/10/26 08:46:12;;;;;;;2.57;2.00;;;13.30;99.90;;;;;;4984318;28;20533;-38
2022/10/26 08:48:41;;;;;;;2.80;2.00;;;13.60;99.90;;;;;;4969795;28;20035;-38
2022/10/26 08:51:13;;;;;;;2.90;1.80;;;13.60;99.90;;;;;;4969360;28;20400;-39
2022/10/26 08:53:57;;;;;;;3.88;1.92;;;13.70;99.90;;;;;;4972618;28;20114;-38
2022/10/26 08:56:42;;;;;;;2.65;1.75;;;13.80;99.90;;;;;;4968827;28;20046;-38
2022/10/26 08:59:32;;;;;;;3.75;1.88;;;13.70;99.90;;;;;;4952394;28;20552;-37
2022/10/26 09:02:00;;;;;;;3.25;2.30;;;13.80;99.90;;;;;;4983295;28;20027;-38
2022/10/26 09:04:28;;;;;;;6.88;2.45;;;13.90;99.90;;;;;;4964464;28;20891;-38
2022/10/26 09:07:31;;;;;;;3.10;2.30;;;14.10;99.90;;;;;;4971224;28;20065;-32
2022/10/26 09:10:19;;;;;;;5.30;2.17;;;14.20;99.90;;;;;;4971201;28;20550;-37
2022/10/26 09:13:01;;;;;;;4.72;2.00;;;14.40;99.90;;;;;;4967134;28;20030;-32
2022/10/26 09:15:45;;;;;;;2.53;1.98;;;14.50;99.90;;;;;;4969496;28;20027;-37
2022/10/26 09:18:46;;;;;;;3.63;2.17;;;14.60;99.90;;;;;;4975228;28;20038;-38
2022/10/26 09:21:57;;;;;;;3.33;2.30;;;14.70;99.90;;;;;;4968967;28;20031;-36
2022/10/26 09:24:32;;;;;;;2.83;1.80;;;14.80;99.90;;;;;;4988022;28;20403;-38
2022/10/26 09:27:25;;;;;;;3.33;1.70;;;14.90;99.90;;;;;;4969537;28;20404;-36
2022/10/26 09:29:52;;;;;;;1.63;1.42;;;15.00;99.90;;;;;;4987423;28;20456;-38
2022/10/26 09:32:22;;;;;;;2.45;1.70;;;15.10;99.90;;;;;;4968597;28;20555;-38
2022/10/26 09:34:49;;;;;;;2.58;1.70;;;15.10;99.90;;;;;;4971130;28;20498;-38
2022/10/26 09:37:25;;;;;;;1.52;1.38;;;15.30;99.90;;;;;;4975387;28;20022;-38
2022/10/26 09:40:03;;;;;;;3.72;1.40;;;15.40;99.90;;;;;;4970547;28;20503;-38
2022/10/26 09:42:38;;;;;;;1.70;1.60;;;15.50;99.90;;;;;;4976900;28;20098;-38
2022/10/26 09:45:23;;;;;;;2.47;1.40;;;15.60;99.90;;;;;;4972257;28;20114;-34
2022/10/26 09:47:52;;;;;;;2.53;1.30;;;15.70;99.90;;;;;;4974995;28;20050;-38
2022/10/26 09:50:39;;;;;;;2.80;1.10;;;15.80;99.90;;;;;;4974176;28;20501;-38
2022/10/26 09:53:05;;;;;;;2.92;1.60;;;16.00;99.90;;;;;;4971373;28;20031;-37
2022/10/26 09:55:32;;;;;;;2.25;1.45;;;16.10;99.90;;;;;;4968095;28;20066;-39
2022/10/26 09:58:02;;;;;;;5.22;1.30;;;16.10;99.90;;;;;;4971624;28;20117;-36
2022/10/26 10:00:28;;;;;;;1.95;1.33;;;16.10;99.90;;;;;;4971298;28;20118;-36
2022/10/26 10:02:56;;;;;;;3.08;1.52;;;16.20;99.90;;;;;;4972512;28;20121;-36
2022/10/26 10:05:32;;;;;;;;;;;16.20;99.90;;;;;;4971646;28;20563;-37
2022/10/26 10:08:10;;;;;;;1.70;1.60;;;16.20;99.90;;;;;;4970895;28;19965;-38
2022/10/26 10:10:36;;;;;;;2.60;1.50;;;16.20;99.90;;;;;;4969734;28;20043;-38
2022/10/26 10:13:16;;;;;;;2.53;1.42;;;16.30;99.90;;;;;;4972448;28;20503;-37
2022/10/26 10:16:10;;;;;;;2.70;1.60;;;16.30;99.90;;;;;;4971462;28;20056;-38
2022/10/26 10:18:38;;;;;;;4.93;1.80;;;16.40;99.90;;;;;;4967751;28;20428;-38
2022/10/26 10:21:05;;;;;;;2.70;1.67;;;16.40;99.90;;;;;;4972291;28;20034;-37
2022/10/26 10:23:53;;;;;;;2.97;1.92;;;16.40;99.90;;;;;;4973499;28;20027;-37
2022/10/26 10:26:19;;;;;;;4.32;1.80;;;16.50;99.90;;;;;;4970815;28;20027;-38
2022/10/26 10:28:59;;;;;;;4.07;1.60;;;16.60;99.90;;;;;;4969525;28;20039;-37
2022/10/26 10:31:30;;;;;;;2.70;1.80;;;16.70;99.90;;;;;;4967048;28;20042;-32
2022/10/26 10:33:57;;;;;;;2.50;1.50;;;16.70;99.90;;;;;;4962093;28;20643;-40
2022/10/26 10:36:28;;;;;;;3.13;1.45;;;16.70;99.90;;;;;;4976209;28;20109;-37
2022/10/26 10:38:54;;;;;;;2.17;1.20;;;16.70;99.90;;;;;;4976596;28;20129;-38
2022/10/26 10:41:31;;;;;;;2.78;1.45;;;16.60;99.90;;;;;;4978178;28;20050;-39
2022/10/26 10:44:02;;;;;;;3.55;1.92;;;16.60;99.90;;;;;;4975226;28;20157;-34
2022/10/26 10:46:28;;;;;;;5.47;1.80;;;16.50;99.90;;;;;;4971966;28;20387;-38
2022/10/26 10:49:02;;;;;;;3.53;1.40;;;16.50;99.90;;;;;;4977520;28;20031;-35
2022/10/26 10:51:34;;;;;;;3.40;1.40;;;16.50;99.90;;;;;;4974545;28;20031;-38
2022/10/26 10:53:59;;;;;;;2.10;1.90;;;16.40;99.90;;;;;;4977449;28;20042;-37
2022/10/26 10:56:37;;;;;;;3.05;1.70;;;16.40;99.90;;;;;;4951952;28;20496;-37
2022/10/26 10:59:24;;;;;;;3.78;1.70;;;16.50;99.90;;;;;;4955813;28;20039;-36
2022/10/26 11:02:20;;;;;;;2.72;1.63;;;16.60;99.90;;;;;;4957624;28;20039;-38
2022/10/26 11:05:01;;;;;;;4.25;1.70;;;16.60;99.90;;;;;;4953209;28;20023;-38
2022/10/26 11:07:30;;;;;;;2.50;1.30;;;16.70;99.90;;;;;;4953547;28;20106;-36
2022/10/26 11:10:01;;;;;;;2.45;1.42;;;16.80;99.90;;;;;;4970798;28;20488;-37
2022/10/26 11:12:33;;;;;;;4.15;1.60;;;16.90;99.90;;;;;;4958767;28;20031;-37
2022/10/26 11:15:14;;;;;;;2.53;1.52;;;17.00;99.90;;;;;;4956102;28;20027;-38
2022/10/26 11:18:08;;;;;;;1.88;1.20;;;17.00;99.90;;;;;;4956955;28;20035;-33
2022/10/26 11:20:41;;;;;;;2.28;1.20;;;17.20;99.90;;;;;;4951647;28;20035;-38
2022/10/26 11:23:13;;;;;;;4.65;1.95;;;17.20;99.90;;;;;;4955031;28;20392;-36
2022/10/26 11:26:06;;;;;;;3.97;1.33;;;17.40;99.90;;;;;;4958759;28;20178;-36
2022/10/26 11:28:47;;;;;;;2.70;1.25;;;17.60;99.90;;;;;;4968709;28;20035;-36
2022/10/26 11:31:20;;;;;;;4.43;1.40;;;18.00;99.90;;;;;;4955579;28;20058;-35
2022/10/26 11:34:07;;;;;;;4.40;1.40;;;18.00;99.90;;;;;;4970003;28;20794;-38
2022/10/26 11:36:34;;;;;;;6.05;1.60;;;18.10;99.90;;;;;;4957561;28;20039;-37
2022/10/26 11:39:07;;;;;;;5.07;1.63;;;18.10;99.90;;;;;;4957741;28;20496;-38
2022/10/26 11:41:44;;;;;;;3.25;1.20;;;18.30;99.90;;;;;;4951500;28;20046;-37
2022/10/26 11:44:16;;;;;;;2.30;1.30;;;18.30;99.90;;;;;;4953272;28;20073;-38
2022/10/26 11:46:47;;;;;;;3.80;1.38;;;18.30;99.90;;;;;;4955430;28;20035;-38
2022/10/26 11:49:12;;;;;;;2.85;1.30;;;18.30;99.90;;;;;;4958357;28;20672;-36
2022/10/26 11:52:00;;;;;;;2.38;1.30;;;18.30;99.90;;;;;;4953507;28;20027;-38
2022/10/26 11:54:41;;;;;;;4.43;1.65;;;18.20;99.90;;;;;;4957040;28;20038;-36
2022/10/26 11:57:10;;;;;;;5.93;1.45;;;18.10;99.90;;;;;;4973849;28;20039;-36
2022/10/26 11:59:44;;;;;;;2.70;1.27;;;18.00;99.90;;;;;;4975850;28;20031;-36
2022/10/26 12:02:15;;;;;;;2.88;1.35;;;18.10;99.90;;;;;;4970510;28;20125;-38
2022/10/26 12:04:42;;;;;;;8.20;2.10;;;18.00;99.90;;;;;;4990542;28;20081;-37
2022/10/26 12:07:20;;;;;;;3.20;1.40;;;18.00;99.90;;;;;;4978761;28;20033;-36
2022/10/26 12:09:45;;;;;;;2.75;1.42;;;18.00;99.90;;;;;;4974404;28;20508;-36
2022/10/26 12:12:21;;;;;;;4.53;1.88;;;18.00;99.90;;;;;;4972017;28;20074;-36
2022/10/26 12:14:51;;;;;;;4.85;1.23;;;18.00;99.90;;;;;;4971970;28;20023;-38
2022/10/26 12:17:37;;;;;;;2.83;1.35;;;18.00;99.90;;;;;;4970573;28;20031;-32
2022/10/26 12:20:47;;;;;;;5.03;1.55;;;18.00;99.90;;;;;;4973475;28;20447;-37
2022/10/26 12:23:13;;;;;;;3.42;1.15;;;18.00;99.90;;;;;;4970587;28;20041;-38
2022/10/26 12:25:38;;;;;;;3.72;1.35;;;18.10;99.90;;;;;;4974162;28;20708;-38
2022/10/26 12:28:04;;;;;;;4.95;1.80;;;18.10;99.90;;;;;;4969530;28;20488;-38
2022/10/26 12:30:35;;;;;;;4.68;1.83;;;18.20;99.90;;;;;;4971243;28;20035;-38
2022/10/26 12:33:21;;;;;;;3.28;1.35;;;18.20;99.90;;;;;;4973168;28;20502;-36
2022/10/26 12:35:47;;;;;;;4.85;1.55;;;18.20;99.90;;;;;;4970589;28;20510;-37
2022/10/26 12:38:27;;;;;;;2.45;1.58;;;18.30;99.90;;;;;;4971784;28;20039;-38
2022/10/26 12:41:05;;;;;;;5.53;1.40;;;18.40;99.90;;;;;;4972084;28;20026;-38
2022/10/26 12:43:37;;;;;;;3.28;1.35;;;18.50;99.90;;;;;;4973125;28;20037;-34
2022/10/26 12:46:12;;;;;;;2.42;1.50;;;18.80;99.90;;;;;;4994650;28;20031;-38
2022/10/26 12:48:45;;;;;;;5.18;1.70;;;18.90;99.90;;;;;;4969691;28;20038;-38
2022/10/26 12:51:31;;;;;;;3.90;1.50;;;19.00;99.90;;;;;;4985772;28;20042;-38
2022/10/26 12:54:24;;;;;;;3.65;1.30;;;19.10;99.90;;;;;;4968655;28;20104;-36
2022/10/26 12:57:09;;;;;;;3.60;1.55;;;18.90;99.90;;;;;;4987535;28;20038;-38
2022/10/26 12:59:49;;;;;;;3.55;1.40;;;18.80;99.90;;;;;;4967218;28;20115;-32
2022/10/26 13:02:33;;;;;;;4.28;1.50;;;18.80;99.90;;;;;;4948527;28;20034;-36
2022/10/26 13:05:24;;;;;;;4.65;1.73;;;18.70;99.90;;;;;;4973713;28;20809;-38
2022/10/26 13:07:50;;;;;;;5.93;1.88;;;18.70;99.90;;;;;;4968089;28;20046;-38
2022/10/26 13:10:24;;;;;;;5.22;1.60;;;18.80;99.90;;;;;;4973284;28;20034;-34
2022/10/26 13:12:59;;;;;;;6.93;1.60;;;18.80;99.90;;;;;;4973903;28;20034;-38
2022/10/26 13:15:32;;;;;;;4.00;1.45;;;18.70;99.90;;;;;;4974062;28;20476;-37
2022/10/26 13:18:00;;;;;;;2.50;1.48;;;18.70;99.90;;;;;;4970069;28;20034;-36